This is the latest recevied weather packets stored in our database for station/object KN4MGS. If no packets are shown the sender has not sent any weather packets the latest 10 day(s).
| Time | Temp. | Humidity | Pressure | Rain* | Wind** | Luminosity | Snow |
|---|---|---|---|---|---|---|---|
| 1777965441 | 11.11° C | 90% | 1019 hPa | 0 mm | - | 0 W/m² | - |
| 1777965139 | 11.67° C | 89% | 1019 hPa | 0 mm | - | 0 W/m² | - |
| 1777964837 | 11.67° C | 88% | 1018.5 hPa | 0 mm | - | 0 W/m² | - |
| 1777964532 | 12.22° C | 86% | 1018.8 hPa | 0 mm | - | 0 W/m² | - |
| 1777964228 | 12.22° C | 86% | 1018.9 hPa | 0 mm | - | 0 W/m² | - |
| 1777963925 | 12.78° C | 84% | 1019 hPa | 0 mm | - | 0 W/m² | - |
| 1777963622 | 12.78° C | 84% | 1018.8 hPa | 0 mm | - | 0 W/m² | - |
| 1777963320 | 13.33° C | 82% | 1018.6 hPa | 0 mm | - | 0 W/m² | - |
| 1777963017 | 12.78° C | 83% | 1018.7 hPa | 0 mm | - | 0 W/m² | - |
| 1777962713 | 12.78° C | 84% | 1018.8 hPa | 0 mm | - | 0 W/m² | - |
| 1777962409 | 12.22° C | 85% | 1018.8 hPa | 0 mm | - | 0 W/m² | - |
| 1777962107 | 12.22° C | 86% | 1018.8 hPa | 0 mm | - | 0 W/m² | - |
| 1777961804 | 12.22° C | 85% | 1018.6 hPa | 0 mm | - | 0 W/m² | - |
| 1777961503 | 12.22° C | 84% | 1018.9 hPa | 0 mm | - | 0 W/m² | - |
| 1777961200 | 12.22° C | 84% | 1018.8 hPa | 0 mm | - | 0 W/m² | - |
| 1777960896 | 12.78° C | 83% | 1018.8 hPa | 0 mm | - | 0 W/m² | - |
| 1777960591 | 12.22° C | 84% | 1018.9 hPa | 0 mm | - | 0 W/m² | - |
| 1777960288 | 11.67° C | 87% | 1018.8 hPa | 0 mm | - | 0 W/m² | - |
| 1777959986 | 11.11° C | 88% | 1018.9 hPa | 0 mm | - | 0 W/m² | - |
| 1777959684 | 10° C | 93% | 1018.8 hPa | 0 mm | - | 0 W/m² | - |
| 1777959381 | 10° C | 95% | 1018.8 hPa | 0 mm | - | 0 W/m² | - |
| 1777959077 | 10° C | 96% | 1018.8 hPa | 0 mm | - | 0 W/m² | - |
| 1777958774 | 9.44° C | 95% | 1018.9 hPa | 0 mm | - | 0 W/m² | - |
| 1777958472 | 9.44° C | 95% | 1019 hPa | 0 mm | - | 0 W/m² | - |
| 1777958168 | 9.44° C | 95% | 1019.1 hPa | 0 mm | - | 0 W/m² | - |
* Rain latest hour (hover to see other rain measurements)
** Current wind speed in m/s (hover to see current wind gust speed)